createdAt,value
2018-11-11T00:02:20.358Z,98267.34
2018-11-11T00:04:48.478Z,98257.69
2018-11-11T00:07:16.589Z,98267.96
2018-11-11T00:09:44.800Z,98275.45
2018-11-11T00:12:12.915Z,98268.53
2018-11-11T00:14:41.546Z,98273.04
2018-11-11T00:17:09.667Z,98271.52
2018-11-11T00:19:37.786Z,98272.16
2018-11-11T00:22:05.951Z,98268.08
2018-11-11T00:24:34.058Z,98280.63
2018-11-11T00:27:03.033Z,98278.73
2018-11-11T00:29:31.157Z,98266.14
2018-11-11T00:31:59.254Z,98257.73
2018-11-11T00:34:27.350Z,98258.92
2018-11-11T00:36:55.445Z,98249.81
2018-11-11T00:39:23.592Z,98252.19
2018-11-11T00:41:51.723Z,98255.35
2018-11-11T00:44:19.806Z,98260.87
2018-11-11T00:46:48.158Z,98267.50
2018-11-11T00:49:16.366Z,98264.23
2018-11-11T00:51:44.517Z,98261.00
2018-11-11T00:54:12.691Z,98257.26
2018-11-11T00:56:40.797Z,98255.45
2018-11-11T00:59:09.428Z,98248.58
2018-11-11T01:01:37.554Z,98254.03
2018-11-11T01:04:05.948Z,98262.47
2018-11-11T01:06:34.117Z,98265.09
2018-11-11T01:09:02.685Z,98258.25
2018-11-11T01:11:30.787Z,98264.88
2018-11-11T01:13:58.898Z,98268.41
2018-11-11T01:16:27.007Z,98266.23
2018-11-11T01:18:55.114Z,98272.93
2018-11-11T01:21:23.223Z,98292.98
2018-11-11T01:23:51.323Z,98286.00
2018-11-11T01:26:19.424Z,98288.67
2018-11-11T01:28:47.525Z,98279.80
2018-11-11T01:31:15.649Z,98282.55
2018-11-11T01:33:43.801Z,98284.61
2018-11-11T01:39:14.867Z,98282.07
2018-11-11T01:41:42.978Z,98279.44
2018-11-11T01:44:11.079Z,98281.62
2018-11-11T01:46:39.170Z,98281.62
2018-11-11T01:49:07.297Z,98272.68
2018-11-11T01:51:35.401Z,98266.45
2018-11-11T01:54:03.609Z,98277.84
2018-11-11T01:56:31.738Z,98271.62
2018-11-11T01:58:59.806Z,98270.63
2018-11-11T02:01:27.942Z,98247.98
2018-11-11T02:03:56.109Z,98246.80
2018-11-11T02:06:24.205Z,98245.22
2018-11-11T02:08:52.307Z,98248.99
2018-11-11T02:11:20.424Z,98236.20
2018-11-11T02:13:48.520Z,98244.91
2018-11-11T02:16:16.677Z,98246.70
2018-11-11T02:18:44.774Z,98253.70
2018-11-11T02:21:12.960Z,98243.20
2018-11-11T02:23:41.066Z,98241.88
2018-11-11T02:26:09.179Z,98237.78
2018-11-11T02:28:37.275Z,98235.04
2018-11-11T02:31:06.145Z,98241.44
2018-11-11T02:33:34.390Z,98233.02
2018-11-11T02:36:02.481Z,98229.25
2018-11-11T02:38:30.611Z,98234.08
2018-11-11T02:40:58.774Z,98239.51
2018-11-11T02:43:26.860Z,98233.45
2018-11-11T02:45:54.999Z,98235.53
2018-11-11T02:48:23.116Z,98243.71
2018-11-11T02:50:51.218Z,98254.79
2018-11-11T02:53:19.409Z,98241.03
2018-11-11T02:55:47.505Z,98252.85
2018-11-11T02:58:15.606Z,98236.58
2018-11-11T03:00:44.301Z,98235.89
2018-11-11T03:03:12.414Z,98239.63
2018-11-11T03:05:40.513Z,98250.33
2018-11-11T03:08:08.613Z,98241.53
2018-11-11T03:10:36.724Z,98233.56
2018-11-11T03:13:05.334Z,98240.66
2018-11-11T03:15:33.511Z,98242.09
2018-11-11T03:18:01.634Z,98238.23
2018-11-11T03:20:29.731Z,98232.58
2018-11-11T03:22:57.826Z,98238.47
2018-11-11T03:25:25.971Z,98235.21
2018-11-11T03:27:54.151Z,98230.36
2018-11-11T03:30:22.253Z,98208.19
2018-11-11T03:32:50.437Z,98213.39
2018-11-11T03:35:19.111Z,98214.11
2018-11-11T03:37:47.389Z,98220.25
2018-11-11T03:40:17.860Z,98217.20
2018-11-11T03:42:47.134Z,98230.70
2018-11-11T03:45:16.638Z,98232.03
2018-11-11T03:47:45.757Z,98241.88
2018-11-11T03:50:13.865Z,98238.23
2018-11-11T03:52:42.192Z,98247.38
2018-11-11T03:55:10.557Z,98237.41
2018-11-11T03:57:38.939Z,98238.95
2018-11-11T04:00:08.987Z,98241.47
2018-11-11T04:02:37.116Z,98225.69
2018-11-11T04:05:05.631Z,98216.23
2018-11-11T04:07:33.773Z,98218.14
2018-11-11T04:10:01.875Z,98224.91
2018-11-11T04:12:29.981Z,98223.75
2018-11-11T04:14:58.091Z,98225.23
2018-11-11T04:17:26.203Z,98222.11
2018-11-11T04:19:54.301Z,98220.41
2018-11-11T04:22:22.414Z,98222.03
2018-11-11T04:24:51.812Z,98221.88
2018-11-11T04:27:20.409Z,98224.63
2018-11-11T04:29:48.690Z,98239.86
2018-11-11T04:32:16.757Z,98251.77
2018-11-11T04:34:44.859Z,98254.17
2018-11-11T04:37:12.983Z,98257.31
2018-11-11T04:39:42.587Z,98258.71
2018-11-11T04:42:10.694Z,98257.48
2018-11-11T04:44:38.790Z,98257.48
2018-11-11T04:47:07.014Z,98253.17
2018-11-11T04:49:36.073Z,98259.53
2018-11-11T04:52:04.189Z,98257.02
2018-11-11T04:54:32.323Z,98250.22
2018-11-11T04:57:00.429Z,98261.55
2018-11-11T04:59:28.538Z,98253.24
2018-11-11T05:01:56.646Z,98253.85
2018-11-11T05:04:24.816Z,98258.55
2018-11-11T05:06:52.898Z,98264.16
2018-11-11T05:09:20.992Z,98273.11
2018-11-11T05:11:49.115Z,98271.75
2018-11-11T05:14:17.249Z,98271.17
2018-11-11T05:16:46.421Z,98271.99
2018-11-11T05:19:14.532Z,98274.65
2018-11-11T05:21:42.619Z,98272.81
2018-11-11T05:24:10.766Z,98286.59
2018-11-11T05:26:38.861Z,98280.67
2018-11-11T05:29:07.286Z,98274.98
2018-11-11T05:31:35.448Z,98283.56
2018-11-11T05:34:03.567Z,98264.03
2018-11-11T05:36:31.674Z,98274.17
2018-11-11T05:38:59.770Z,98279.98
2018-11-11T05:41:27.894Z,98279.27
2018-11-11T05:43:56.419Z,98278.55
2018-11-11T05:46:24.532Z,98291.61
2018-11-11T05:48:52.633Z,98300.05
2018-11-11T05:51:20.751Z,98310.39
2018-11-11T05:53:48.852Z,98304.38
2018-11-11T05:56:16.943Z,98313.92
2018-11-11T05:58:45.078Z,98302.80
2018-11-11T06:01:13.218Z,98321.27
2018-11-11T06:03:41.358Z,98328.62
2018-11-11T06:06:09.470Z,98335.23
2018-11-11T06:08:37.655Z,98330.19
2018-11-11T06:11:12.562Z,98331.02
2018-11-11T06:13:40.658Z,98328.57
2018-11-11T06:16:08.788Z,98327.01
2018-11-11T06:18:37.009Z,98325.10
2018-11-11T06:21:05.298Z,98318.33
2018-11-11T06:23:33.393Z,98318.53
2018-11-11T06:26:01.507Z,98321.47
2018-11-11T06:28:29.701Z,98328.34
2018-11-11T06:30:57.804Z,98347.26
2018-11-11T06:33:25.911Z,98362.13
2018-11-11T06:35:54.101Z,98363.20
2018-11-11T06:38:22.370Z,98372.36
2018-11-11T06:40:50.569Z,98385.53
2018-11-11T06:43:18.717Z,98385.63
2018-11-11T06:45:46.829Z,98392.97
2018-11-11T06:48:15.031Z,98400.45
2018-11-11T06:50:43.306Z,98397.64
2018-11-11T06:53:11.397Z,98403.34
2018-11-11T06:55:39.514Z,98413.25
2018-11-11T06:58:07.648Z,98421.42
2018-11-11T07:00:35.729Z,98414.70
2018-11-11T07:03:15.590Z,98425.30
2018-11-11T07:05:43.696Z,98438.98
2018-11-11T07:08:11.810Z,98440.21
2018-11-11T07:10:39.934Z,98445.02
2018-11-11T07:13:08.038Z,98433.70
2018-11-11T07:15:36.134Z,98428.06
2018-11-11T07:18:04.242Z,98429.52
2018-11-11T07:20:32.385Z,98430.34
2018-11-11T07:23:00.485Z,98430.22
2018-11-11T07:25:28.592Z,98434.10
2018-11-11T07:27:56.789Z,98439.41
2018-11-11T07:30:25.191Z,98437.70
2018-11-11T07:32:53.315Z,98436.63
2018-11-11T07:35:21.393Z,98447.10
2018-11-11T07:37:49.489Z,98450.48
2018-11-11T07:40:17.775Z,98452.06
2018-11-11T07:42:45.954Z,98461.22
2018-11-11T07:45:14.062Z,98472.77
2018-11-11T07:47:42.192Z,98473.14
2018-11-11T07:50:11.118Z,98471.31
2018-11-11T07:52:39.381Z,98470.48
2018-11-11T07:55:08.884Z,98463.38
2018-11-11T07:57:37.076Z,98474.34
2018-11-11T08:00:07.666Z,98473.48
2018-11-11T08:02:35.902Z,98479.04
2018-11-11T08:05:04.637Z,98481.83
2018-11-11T08:07:32.738Z,98479.17
2018-11-11T08:10:00.856Z,98487.84
2018-11-11T08:12:29.776Z,98487.85
2018-11-11T08:14:57.878Z,98485.80
2018-11-11T08:17:25.990Z,98478.91
2018-11-11T08:19:54.599Z,98477.97
2018-11-11T08:22:22.706Z,98481.22
2018-11-11T08:24:50.813Z,98478.91
2018-11-11T08:27:18.959Z,98483.37
2018-11-11T08:29:47.055Z,98489.05
2018-11-11T08:32:15.223Z,98492.30
2018-11-11T08:34:43.264Z,98496.41
2018-11-11T08:37:11.452Z,98507.48
2018-11-11T08:39:40.159Z,98498.67
2018-11-11T08:42:08.333Z,98490.73
2018-11-11T08:44:36.442Z,98488.17
2018-11-11T08:47:04.587Z,98493.48
2018-11-11T08:49:32.691Z,98499.63
2018-11-11T08:52:04.606Z,98498.56
2018-11-11T08:54:32.692Z,98498.20
2018-11-11T08:57:00.811Z,98504.92
2018-11-11T08:59:28.925Z,98504.09
2018-11-11T09:01:57.050Z,98499.27
2018-11-11T09:04:25.217Z,98504.55
2018-11-11T09:06:55.038Z,98497.27
2018-11-11T09:09:23.217Z,98491.84
2018-11-11T09:11:51.458Z,98494.31
2018-11-11T09:14:19.578Z,98495.28
2018-11-11T09:16:49.417Z,98486.06
2018-11-11T09:19:17.514Z,98482.25
2018-11-11T09:21:45.689Z,98484.23
2018-11-11T09:24:13.830Z,98482.77
2018-11-11T09:26:41.913Z,98476.31
2018-11-11T09:29:10.326Z,98475.42
2018-11-11T09:31:38.695Z,98482.12
2018-11-11T09:34:06.827Z,98474.75
2018-11-11T09:36:34.978Z,98482.45
2018-11-11T09:39:03.572Z,98485.07
2018-11-11T09:41:32.921Z,98504.95
2018-11-11T09:44:01.079Z,98504.19
2018-11-11T09:46:29.197Z,98502.66
2018-11-11T09:48:57.407Z,98514.02
2018-11-11T09:51:25.533Z,98521.61
2018-11-11T09:53:53.786Z,98515.98
2018-11-11T09:56:22.483Z,98533.58
2018-11-11T09:58:50.686Z,98524.39
2018-11-11T10:01:18.741Z,98532.87
2018-11-11T10:03:51.498Z,98536.55
2018-11-11T10:06:31.315Z,98525.89
2018-11-11T10:09:05.495Z,98527.05
2018-11-11T10:11:57.839Z,98532.91
2018-11-11T10:14:31.180Z,98548.34
2018-11-11T10:17:13.391Z,98549.87
2018-11-11T10:19:45.370Z,98555.28
2018-11-11T10:22:28.801Z,98551.63
2018-11-11T10:25:02.361Z,98547.12
2018-11-11T10:27:36.946Z,98549.98
2018-11-11T10:30:15.962Z,98550.50
2018-11-11T10:33:01.194Z,98544.48
2018-11-11T10:35:34.541Z,98537.75
2018-11-11T10:38:06.077Z,98545.68
2018-11-11T10:40:39.704Z,98549.05
2018-11-11T10:43:17.386Z,98567.75
2018-11-11T10:45:50.946Z,98562.82
2018-11-11T10:48:25.404Z,98571.71
2018-11-11T10:50:58.082Z,98561.72
2018-11-11T10:53:27.432Z,98564.15
2018-11-11T10:55:55.870Z,98573.80
2018-11-11T10:58:25.316Z,98571.28
2018-11-11T11:01:01.017Z,98572.40
2018-11-11T11:03:44.230Z,98575.10
2018-11-11T11:06:15.542Z,98576.83
2018-11-11T11:08:51.421Z,98574.21
2018-11-11T11:11:21.384Z,98571.50
2018-11-11T11:13:52.038Z,98567.80
2018-11-11T11:16:21.499Z,98580.45
2018-11-11T11:18:51.289Z,98560.30
2018-11-11T11:21:21.899Z,98572.45
2018-11-11T11:23:50.646Z,98574.72
2018-11-11T11:26:18.843Z,98576.31
2018-11-11T11:28:47.131Z,98575.20
2018-11-11T11:31:15.681Z,98577.94
2018-11-11T11:33:44.800Z,98578.09
2018-11-11T11:36:14.234Z,98577.86
2018-11-11T11:38:44.021Z,98579.69
2018-11-11T11:41:16.535Z,98578.20
2018-11-11T11:43:44.954Z,98598.34
2018-11-11T11:46:14.733Z,98592.83
2018-11-11T11:48:44.348Z,98592.88
2018-11-11T11:51:14.972Z,98597.95
2018-11-11T11:53:43.873Z,98609.50
2018-11-11T11:56:13.129Z,98601.22
2018-11-11T11:58:41.946Z,98620.46
2018-11-11T12:01:10.099Z,98631.52
2018-11-11T12:03:38.218Z,98632.73
2018-11-11T12:06:06.331Z,98632.66
2018-11-11T12:08:35.475Z,98625.30
2018-11-11T12:11:03.528Z,98633.38
2018-11-11T12:13:31.630Z,98622.71
2018-11-11T12:15:59.797Z,98623.09
2018-11-11T12:18:27.917Z,98609.69
2018-11-11T12:20:56.023Z,98619.84
2018-11-11T12:23:24.175Z,98619.88
2018-11-11T12:25:52.314Z,98617.22
2018-11-11T12:28:20.475Z,98620.83
2018-11-11T12:30:48.654Z,98613.94
2018-11-11T12:33:16.740Z,98617.80
2018-11-11T12:35:45.003Z,98618.28
2018-11-11T12:38:13.113Z,98613.67
2018-11-11T12:40:41.284Z,98612.79
2018-11-11T12:43:09.450Z,98613.37
2018-11-11T12:45:37.814Z,98608.97
2018-11-11T12:48:10.499Z,98590.66
2018-11-11T12:50:38.668Z,98604.40
2018-11-11T12:53:06.787Z,98608.91
2018-11-11T12:55:35.017Z,98613.71
2018-11-11T12:58:03.058Z,98609.16
2018-11-11T13:00:31.184Z,98610.08
2018-11-11T13:02:59.388Z,98615.56
2018-11-11T13:05:29.768Z,98603.06
2018-11-11T13:07:58.602Z,98600.67
2018-11-11T13:10:28.656Z,98601.30
2018-11-11T13:13:00.011Z,98600.86
2018-11-11T13:15:30.669Z,98606.84
2018-11-11T13:18:00.705Z,98601.05
2018-11-11T13:20:28.902Z,98604.08
2018-11-11T13:22:57.934Z,98599.91
2018-11-11T13:25:25.961Z,98594.20
2018-11-11T13:27:54.080Z,98593.02
2018-11-11T13:30:22.257Z,98595.01
2018-11-11T13:32:50.369Z,98590.27
2018-11-11T13:35:18.486Z,98596.00
2018-11-11T13:37:46.833Z,98594.43
2018-11-11T13:40:17.101Z,98584.16
2018-11-11T13:42:45.280Z,98586.11
2018-11-11T13:45:15.719Z,98579.18
2018-11-11T13:47:44.898Z,98592.92
2018-11-11T13:50:15.153Z,98596.61
2018-11-11T13:52:44.222Z,98593.38
2018-11-11T13:55:13.561Z,98598.08
2018-11-11T13:57:42.505Z,98604.73
2018-11-11T14:00:19.690Z,98612.72
2018-11-11T14:02:47.838Z,98617.22
2018-11-11T14:05:16.143Z,98622.68
2018-11-11T14:07:44.298Z,98613.98
2018-11-11T14:10:13.105Z,98621.83
2018-11-11T14:12:41.294Z,98620.80
2018-11-11T14:15:16.858Z,98615.62
2018-11-11T14:17:46.675Z,98620.42
2018-11-11T14:20:16.266Z,98627.45
2018-11-11T14:22:45.558Z,98626.12
2018-11-11T14:25:16.346Z,98620.66
2018-11-11T14:27:44.988Z,98616.30
2018-11-11T14:30:15.673Z,98614.52
2018-11-11T14:32:44.377Z,98610.06
2018-11-11T14:35:12.858Z,98605.87
2018-11-11T14:37:41.141Z,98604.06
2018-11-11T14:40:12.491Z,98605.77
2018-11-11T14:42:41.067Z,98610.12
2018-11-11T14:45:10.566Z,98608.59
2018-11-11T14:47:39.880Z,98613.64
2018-11-11T14:50:09.321Z,98618.21
2018-11-11T14:52:37.721Z,98631.14
2018-11-11T14:55:09.310Z,98630.97
2018-11-11T14:57:37.604Z,98627.00
2018-11-11T15:00:10.287Z,98620.91
2018-11-11T15:02:38.452Z,98619.92
2018-11-11T15:05:08.582Z,98624.86
2018-11-11T15:07:36.698Z,98627.02
2018-11-11T15:10:06.985Z,98637.38
2018-11-11T15:12:35.056Z,98646.59
2018-11-11T15:15:03.171Z,98637.66
2018-11-11T15:17:31.333Z,98642.39
2018-11-11T15:20:00.190Z,98647.23
2018-11-11T15:22:28.284Z,98650.95
2018-11-11T15:24:56.394Z,98647.20
2018-11-11T15:27:25.079Z,98643.44
2018-11-11T15:29:53.183Z,98648.92
2018-11-11T15:32:21.306Z,98652.87
2018-11-11T15:34:49.470Z,98659.37
2018-11-11T15:37:17.806Z,98670.48
2018-11-11T15:39:46.135Z,98681.34
2018-11-11T15:42:15.035Z,98677.59
2018-11-11T15:44:44.217Z,98671.95
2018-11-11T15:47:12.362Z,98674.39
2018-11-11T15:49:41.120Z,98681.71
2018-11-11T15:52:09.328Z,98674.08
2018-11-11T15:54:37.361Z,98665.96
2018-11-11T15:57:05.845Z,98665.94
2018-11-11T15:59:35.641Z,98655.08
2018-11-11T16:02:03.746Z,98657.93
2018-11-11T16:04:31.981Z,98656.98
2018-11-11T16:07:00.154Z,98653.84
2018-11-11T16:09:28.273Z,98641.94
2018-11-11T16:11:56.467Z,98625.62
2018-11-11T16:14:24.588Z,98626.39
2018-11-11T16:16:52.866Z,98622.98
2018-11-11T16:19:22.675Z,98620.70
2018-11-11T16:21:51.720Z,98618.94
2018-11-11T16:24:20.377Z,98628.37
2018-11-11T16:26:49.004Z,98611.55
2018-11-11T16:29:17.296Z,98616.50
2018-11-11T16:31:45.417Z,98613.30
2018-11-11T16:34:13.532Z,98614.91
2018-11-11T16:36:41.768Z,98612.94
2018-11-11T16:39:11.451Z,98604.66
2018-11-11T16:41:39.694Z,98581.38
2018-11-11T16:44:08.273Z,98583.64
2018-11-11T16:46:36.398Z,98576.89
2018-11-11T16:49:07.297Z,98572.90
2018-11-11T16:51:36.572Z,98593.27
2018-11-11T16:54:05.563Z,98590.70
2018-11-11T16:56:33.913Z,98576.86
2018-11-11T16:59:02.022Z,98589.18
2018-11-11T17:01:30.193Z,98582.06
2018-11-11T17:03:58.599Z,98592.11
2018-11-11T17:06:26.733Z,98602.48
2018-11-11T17:08:55.070Z,98601.88
2018-11-11T17:11:23.282Z,98599.34
2018-11-11T17:13:52.286Z,98600.20
2018-11-11T17:16:20.417Z,98609.23
2018-11-11T17:18:48.536Z,98618.05
2018-11-11T17:21:16.686Z,98603.06
2018-11-11T17:23:44.774Z,98623.08
2018-11-11T17:26:13.041Z,98637.81
2018-11-11T17:28:41.818Z,98642.37
2018-11-11T17:31:09.916Z,98644.03
2018-11-11T17:33:38.018Z,98648.74
2018-11-11T17:36:07.764Z,98659.11
2018-11-11T17:38:35.897Z,98675.08
2018-11-11T17:41:04.023Z,98746.65
2018-11-11T17:43:32.206Z,98772.62
2018-11-11T17:46:00.337Z,98744.47
2018-11-11T17:48:28.493Z,98757.53
2018-11-11T17:51:00.196Z,98749.19
2018-11-11T17:53:28.566Z,98762.85
2018-11-11T17:55:56.785Z,98773.60
2018-11-11T17:58:27.250Z,98773.82
2018-11-11T18:00:55.393Z,98766.58
2018-11-11T18:03:24.126Z,98792.03
2018-11-11T18:05:53.355Z,98778.74
2018-11-11T18:08:22.587Z,98767.30
2018-11-11T18:10:50.688Z,98765.96
2018-11-11T18:13:18.821Z,98781.90
2018-11-11T18:15:47.105Z,98771.03
2018-11-11T18:18:16.558Z,98771.49
2018-11-11T18:20:46.097Z,98775.72
2018-11-11T18:23:15.277Z,98768.48
2018-11-11T18:25:44.907Z,98766.89
2018-11-11T18:28:13.103Z,98778.50
2018-11-11T18:30:41.197Z,98774.39
2018-11-11T18:33:10.642Z,98768.09
2018-11-11T18:35:38.758Z,98777.72
2018-11-11T18:38:06.924Z,98780.58
2018-11-11T18:40:35.134Z,98791.38
2018-11-11T18:43:03.444Z,98797.09
2018-11-11T18:45:32.517Z,98815.30
2018-11-11T18:48:01.444Z,98805.00
2018-11-11T18:50:30.937Z,98810.81
2018-11-11T18:52:59.457Z,98798.27
2018-11-11T18:55:27.713Z,98808.03
2018-11-11T18:57:56.988Z,98816.67
2018-11-11T19:00:26.297Z,98827.56
2018-11-11T19:02:55.276Z,98834.22
2018-11-11T19:05:25.961Z,98842.41
2018-11-11T19:07:56.431Z,98829.02
2018-11-11T19:10:28.171Z,98836.55
2018-11-11T19:12:57.700Z,98832.52
2018-11-11T19:15:25.719Z,98822.77
2018-11-11T19:17:54.384Z,98835.91
2018-11-11T19:20:23.601Z,98832.86
2018-11-11T19:22:52.465Z,98848.92
2018-11-11T19:25:21.837Z,98838.97
2018-11-11T19:27:54.172Z,98840.94
2018-11-11T19:30:23.695Z,98849.34
2018-11-11T19:32:52.305Z,98841.97
2018-11-11T19:35:20.510Z,98846.17
2018-11-11T19:37:50.011Z,98857.79
2018-11-11T19:40:19.614Z,98857.55
2018-11-11T19:42:47.992Z,98860.64
2018-11-11T19:45:18.590Z,98860.16
2018-11-11T19:47:46.754Z,98862.33
2018-11-11T19:50:16.473Z,98855.06
2018-11-11T19:52:45.926Z,98852.48
2018-11-11T19:55:23.849Z,98863.14
2018-11-11T19:57:52.178Z,98864.06
2018-11-11T20:00:23.628Z,98868.84
2018-11-11T20:02:53.313Z,98874.65
2018-11-11T20:05:23.665Z,98873.70
2018-11-11T20:07:53.272Z,98886.64
2018-11-11T20:10:22.139Z,98899.81
2018-11-11T20:12:50.231Z,98909.52
2018-11-11T20:15:26.193Z,98912.05
2018-11-11T20:17:54.277Z,98911.42
2018-11-11T20:20:23.942Z,98921.59
2018-11-11T20:22:52.721Z,98922.75
2018-11-11T20:25:21.858Z,98930.48
2018-11-11T20:27:50.014Z,98941.51
2018-11-11T20:30:25.259Z,98931.36
2018-11-11T20:32:53.727Z,98935.64
2018-11-11T20:35:23.402Z,98944.07
2018-11-11T20:37:51.796Z,98948.41
2018-11-11T20:40:21.318Z,98940.14
2018-11-11T20:42:50.259Z,98930.50
2018-11-11T20:45:19.957Z,98929.69
2018-11-11T20:47:48.811Z,98933.30
2018-11-11T20:50:20.167Z,98947.43
2018-11-11T20:52:49.751Z,98926.91
2018-11-11T20:55:18.561Z,98950.32
2018-11-11T20:57:47.222Z,98928.23
2018-11-11T21:00:17.660Z,98937.02
2018-11-11T21:02:45.883Z,98940.53
2018-11-11T21:05:17.190Z,98948.95
2018-11-11T21:07:45.670Z,98963.28
2018-11-11T21:10:16.729Z,98968.39
2018-11-11T21:12:44.990Z,98978.52
2018-11-11T21:15:14.476Z,98981.10
2018-11-11T21:17:42.778Z,98979.03
2018-11-11T21:20:12.621Z,98976.27
2018-11-11T21:22:41.034Z,98976.00
2018-11-11T21:25:09.442Z,98970.77
2018-11-11T21:27:39.585Z,98962.07
2018-11-11T21:30:10.252Z,98955.28
2018-11-11T21:32:38.448Z,98958.56
2018-11-11T21:35:06.642Z,98953.52
2018-11-11T21:37:34.790Z,98955.20
2018-11-11T21:40:03.135Z,98953.71
2018-11-11T21:42:31.550Z,98941.06
2018-11-11T21:44:59.668Z,98950.27
2018-11-11T21:47:27.825Z,98946.67
2018-11-11T21:49:56.049Z,98950.27
2018-11-11T21:52:24.179Z,98950.59
2018-11-11T21:54:52.316Z,98955.78
2018-11-11T21:57:20.497Z,98951.13
2018-11-11T21:59:48.602Z,98950.14
2018-11-11T22:02:16.876Z,98955.08
2018-11-11T22:04:44.906Z,98958.88
2018-11-11T22:07:13.025Z,98965.28
2018-11-11T22:09:41.677Z,98978.63
2018-11-11T22:12:09.885Z,98971.64
2018-11-11T22:14:38.037Z,98969.90
2018-11-11T22:17:06.380Z,98968.10
2018-11-11T22:19:34.546Z,98972.94
2018-11-11T22:22:02.709Z,98965.45
2018-11-11T22:24:30.894Z,98967.03
2018-11-11T22:26:59.012Z,98962.55
2018-11-11T22:29:27.103Z,98959.03
2018-11-11T22:31:56.033Z,98960.36
2018-11-11T22:34:24.146Z,98958.25
2018-11-11T22:36:52.265Z,98962.96
2018-11-11T22:39:20.445Z,98955.34
2018-11-11T22:41:48.569Z,98953.16
2018-11-11T22:44:17.006Z,98951.46
2018-11-11T22:46:45.129Z,98953.41
2018-11-11T22:49:13.312Z,98961.76
2018-11-11T22:51:41.434Z,98964.56
2018-11-11T22:54:09.549Z,98961.08
2018-11-11T22:56:38.313Z,98956.98
2018-11-11T22:59:07.368Z,98954.38
2018-11-11T23:01:35.499Z,98962.14
2018-11-11T23:04:03.695Z,98968.69
2018-11-11T23:06:32.636Z,98964.59
2018-11-11T23:09:00.758Z,98961.89
2018-11-11T23:11:28.858Z,98962.97
2018-11-11T23:13:56.965Z,98954.89
2018-11-11T23:16:25.095Z,98952.42
2018-11-11T23:18:53.190Z,98958.76
2018-11-11T23:21:21.299Z,98957.55
2018-11-11T23:23:50.098Z,98971.27
2018-11-11T23:26:18.221Z,98971.87
2018-11-11T23:28:46.334Z,98970.32
2018-11-11T23:31:14.450Z,98980.23
2018-11-11T23:33:42.558Z,98992.32
2018-11-11T23:36:10.671Z,98979.17
2018-11-11T23:38:39.266Z,98973.92
2018-11-11T23:41:07.385Z,98979.46
2018-11-11T23:43:35.490Z,98975.04
2018-11-11T23:46:04.441Z,98983.44
2018-11-11T23:48:32.548Z,98983.17
2018-11-11T23:51:00.750Z,98980.52
2018-11-11T23:53:28.861Z,98983.42
2018-11-11T23:55:56.952Z,98974.59
2018-11-11T23:58:25.063Z,98979.17
